createdAt,value
2022-08-27T00:00:44.451Z,14.97
2022-08-27T00:03:11.504Z,13.27
2022-08-27T00:05:38.084Z,13.00
2022-08-27T00:08:05.664Z,12.43
2022-08-27T00:10:32.611Z,12.30
2022-08-27T00:12:59.524Z,13.50
2022-08-27T00:15:26.230Z,12.17
2022-08-27T00:17:52.848Z,14.63
2022-08-27T00:20:20.961Z,13.20
2022-08-27T00:22:47.474Z,15.77
2022-08-27T00:25:14.044Z,12.80
2022-08-27T00:27:40.583Z,13.13
2022-08-27T00:30:08.477Z,21.13
2022-08-27T00:32:35.044Z,12.23
2022-08-27T00:35:01.581Z,12.40
2022-08-27T00:37:28.077Z,12.80
2022-08-27T00:39:55.295Z,11.10
2022-08-27T00:42:22.787Z,14.03
2022-08-27T00:44:49.381Z,10.03
2022-08-27T00:47:19.950Z,12.80
2022-08-27T00:49:52.287Z,13.43
2022-08-27T00:52:18.857Z,16.40
2022-08-27T00:54:45.754Z,11.33
2022-08-27T00:57:13.916Z,12.77
2022-08-27T00:59:41.704Z,11.73
2022-08-27T01:02:20.608Z,13.50
2022-08-27T01:04:49.984Z,11.10
2022-08-27T01:07:17.206Z,12.23
2022-08-27T01:09:44.194Z,10.80
2022-08-27T01:12:11.296Z,10.33
2022-08-27T01:14:38.378Z,12.03
2022-08-27T01:17:06.125Z,12.67
2022-08-27T01:19:42.342Z,15.13
2022-08-27T01:22:23.362Z,11.40
2022-08-27T01:24:51.844Z,10.90
2022-08-27T01:27:20.537Z,11.27
2022-08-27T01:29:47.078Z,11.47
2022-08-27T01:32:15.660Z,11.37
2022-08-27T01:34:42.328Z,11.10
2022-08-27T01:37:09.472Z,9.63
2022-08-27T01:39:37.244Z,10.70
2022-08-27T01:42:05.790Z,12.00
2022-08-27T01:44:41.509Z,11.07
2022-08-27T01:47:08.253Z,11.70
2022-08-27T01:49:34.815Z,10.37
2022-08-27T01:52:01.345Z,11.63
2022-08-27T01:54:27.842Z,11.50
2022-08-27T01:56:54.678Z,12.17
2022-08-27T01:59:21.194Z,11.13
2022-08-27T02:01:47.774Z,11.40
2022-08-27T02:04:14.297Z,12.57
2022-08-27T02:06:40.874Z,12.00
2022-08-27T02:09:07.358Z,11.90
2022-08-27T02:11:33.847Z,11.07
2022-08-27T02:14:13.416Z,11.90
2022-08-27T02:16:41.293Z,14.13
2022-08-27T02:19:19.020Z,11.80
2022-08-27T02:21:45.610Z,14.10
2022-08-27T02:24:12.121Z,11.07
2022-08-27T02:26:39.070Z,11.23
2022-08-27T02:29:05.738Z,11.67
2022-08-27T02:31:32.713Z,10.63
2022-08-27T02:33:59.334Z,10.93
2022-08-27T02:36:25.892Z,11.10
2022-08-27T02:38:52.435Z,11.20
2022-08-27T02:41:18.991Z,11.63
2022-08-27T02:43:45.715Z,12.07
2022-08-27T02:46:13.056Z,13.37
2022-08-27T02:48:40.085Z,12.13
2022-08-27T02:51:07.573Z,12.17
2022-08-27T02:53:35.633Z,16.03
2022-08-27T02:56:02.274Z,15.97
2022-08-27T02:58:28.738Z,13.23
2022-08-27T03:00:56.908Z,13.07
2022-08-27T03:03:23.441Z,11.73
2022-08-27T03:05:50.009Z,12.73
2022-08-27T03:08:16.479Z,12.70
2022-08-27T03:10:42.962Z,15.63
2022-08-27T03:13:09.517Z,12.30
2022-08-27T03:15:35.997Z,11.47
2022-08-27T03:18:21.607Z,13.60
2022-08-27T03:20:49.885Z,11.07
2022-08-27T03:23:17.552Z,13.03
2022-08-27T03:25:45.885Z,12.50
2022-08-27T03:28:22.985Z,10.90
2022-08-27T03:30:52.301Z,12.83
2022-08-27T03:33:19.875Z,11.20
2022-08-27T03:35:51.883Z,13.90
2022-08-27T03:38:18.706Z,13.10
2022-08-27T03:40:45.218Z,11.93
2022-08-27T03:43:12.288Z,13.80
2022-08-27T03:46:00.637Z,11.27
2022-08-27T03:48:25.416Z,12.77
2022-08-27T03:50:52.010Z,12.20
2022-08-27T03:53:20.347Z,12.30
2022-08-27T03:55:47.825Z,14.07
2022-08-27T03:58:14.521Z,14.40
2022-08-27T04:00:41.330Z,11.10
2022-08-27T04:03:08.061Z,13.10
2022-08-27T04:05:34.882Z,13.40
2022-08-27T04:08:01.463Z,12.00
2022-08-27T04:10:27.996Z,12.20
2022-08-27T04:12:59.470Z,11.70
2022-08-27T04:15:26.240Z,14.73
2022-08-27T04:17:52.861Z,13.00
2022-08-27T04:20:35.125Z,13.30
2022-08-27T04:23:02.216Z,12.80
2022-08-27T04:25:28.760Z,12.33
2022-08-27T04:27:55.262Z,12.57
2022-08-27T04:30:21.772Z,12.30
2022-08-27T04:32:50.586Z,12.57
2022-08-27T04:35:17.266Z,14.83
2022-08-27T04:37:43.788Z,13.43
2022-08-27T04:40:10.575Z,13.50
2022-08-27T04:42:37.107Z,13.77
2022-08-27T04:45:04.388Z,12.50
2022-08-27T04:47:31.066Z,14.50
2022-08-27T04:49:57.684Z,13.17
2022-08-27T04:52:25.034Z,14.50
2022-08-27T04:54:52.027Z,17.03
2022-08-27T04:57:18.797Z,12.60
2022-08-27T04:59:45.509Z,13.77
2022-08-27T05:02:12.167Z,13.57
2022-08-27T05:04:40.124Z,12.73
2022-08-27T05:07:07.486Z,12.10
2022-08-27T05:09:34.516Z,13.53
2022-08-27T05:12:01.832Z,13.60
2022-08-27T05:14:32.701Z,16.90
2022-08-27T05:16:59.680Z,15.20
2022-08-27T05:19:26.318Z,14.50
2022-08-27T05:21:53.852Z,13.00
2022-08-27T05:24:21.110Z,12.57
2022-08-27T05:26:47.641Z,11.73
2022-08-27T05:29:14.683Z,12.80
2022-08-27T05:31:41.698Z,16.63
2022-08-27T05:34:10.416Z,15.20
2022-08-27T05:36:47.728Z,16.00
2022-08-27T05:39:15.994Z,15.67
2022-08-27T05:41:43.019Z,15.70
2022-08-27T05:44:37.259Z,18.10
2022-08-27T05:46:56.732Z,14.93
2022-08-27T05:49:23.268Z,15.70
2022-08-27T05:51:49.799Z,14.57
2022-08-27T05:54:19.633Z,16.30
2022-08-27T05:56:47.131Z,15.23
2022-08-27T05:59:34.870Z,16.27
2022-08-27T06:02:02.099Z,17.87
2022-08-27T06:04:28.777Z,15.30
2022-08-27T06:06:55.312Z,16.17
2022-08-27T06:09:23.872Z,15.70
2022-08-27T06:11:50.526Z,18.00
2022-08-27T06:14:17.083Z,16.27
2022-08-27T06:16:44.352Z,13.90
2022-08-27T06:19:14.284Z,15.97
2022-08-27T06:21:41.567Z,14.17
2022-08-27T06:24:08.722Z,16.27
2022-08-27T06:26:36.326Z,15.40
2022-08-27T06:29:04.223Z,16.07
2022-08-27T06:31:30.879Z,16.27
2022-08-27T06:34:02.881Z,16.23
2022-08-27T06:36:35.850Z,14.17
2022-08-27T06:39:02.351Z,15.53
2022-08-27T06:41:29.152Z,15.17
2022-08-27T06:43:56.554Z,16.47
2022-08-27T06:46:23.987Z,16.00
2022-08-27T06:48:55.010Z,16.23
2022-08-27T06:51:26.365Z,15.80
2022-08-27T06:53:54.140Z,16.47
2022-08-27T06:56:20.783Z,18.27
2022-08-27T06:58:48.452Z,17.90
2022-08-27T07:01:16.548Z,17.73
2022-08-27T07:03:43.596Z,15.70
2022-08-27T07:06:11.077Z,18.30
2022-08-27T07:08:37.721Z,19.03
2022-08-27T07:11:04.623Z,17.80
2022-08-27T07:13:31.370Z,18.57
2022-08-27T07:15:58.161Z,19.17
2022-08-27T07:18:27.321Z,19.80
2022-08-27T07:20:54.776Z,20.83
2022-08-27T07:23:21.603Z,17.33
2022-08-27T07:25:48.196Z,17.93
2022-08-27T07:28:14.975Z,18.47
2022-08-27T07:30:41.547Z,19.50
2022-08-27T07:33:08.927Z,18.80
2022-08-27T07:35:35.424Z,20.07
2022-08-27T07:38:01.961Z,22.93
2022-08-27T07:40:28.682Z,24.57
2022-08-27T07:43:14.687Z,23.60
2022-08-27T07:45:44.864Z,22.37
2022-08-27T07:48:12.284Z,23.87
2022-08-27T07:50:38.899Z,25.60
2022-08-27T07:53:05.541Z,24.80
2022-08-27T07:55:32.092Z,26.77
2022-08-27T07:57:58.650Z,24.00
2022-08-27T08:00:25.738Z,31.57
2022-08-27T08:02:52.269Z,30.97
2022-08-27T08:05:18.838Z,26.00
2022-08-27T08:07:45.381Z,25.27
2022-08-27T08:10:11.981Z,21.00
2022-08-27T08:12:39.216Z,21.93
2022-08-27T08:15:07.504Z,26.53
2022-08-27T08:17:34.740Z,21.97
2022-08-27T08:20:24.184Z,23.73
2022-08-27T08:22:48.888Z,22.00
2022-08-27T08:25:16.009Z,20.80
2022-08-27T08:27:43.163Z,18.20
2022-08-27T08:30:10.320Z,18.50
2022-08-27T08:32:37.346Z,17.57
2022-08-27T08:35:04.481Z,16.23
2022-08-27T08:37:33.328Z,17.40
2022-08-27T08:40:00.006Z,16.13
2022-08-27T08:42:31.249Z,15.17
2022-08-27T08:44:59.299Z,16.67
2022-08-27T08:47:29.384Z,15.17
2022-08-27T08:49:59.817Z,17.47
2022-08-27T08:52:31.445Z,14.13
2022-08-27T08:55:10.798Z,16.40
2022-08-27T08:57:40.800Z,14.03
2022-08-27T09:00:14.845Z,14.63
2022-08-27T09:02:45.604Z,13.27
2022-08-27T09:05:12.510Z,11.77
2022-08-27T09:07:45.674Z,12.20
2022-08-27T09:10:39.305Z,14.03
2022-08-27T09:13:07.343Z,12.27
2022-08-27T09:15:34.727Z,12.73
2022-08-27T09:18:13.931Z,16.30
2022-08-27T09:20:42.754Z,12.23
2022-08-27T09:23:28.171Z,12.13
2022-08-27T09:25:54.669Z,12.60
2022-08-27T09:28:43.740Z,12.10
2022-08-27T09:31:12.783Z,13.60
2022-08-27T09:33:53.631Z,10.27
2022-08-27T09:36:23.997Z,11.50
2022-08-27T09:38:58.314Z,10.73
2022-08-27T09:41:27.977Z,10.43
2022-08-27T09:44:07.403Z,10.63
2022-08-27T09:46:33.991Z,8.90
2022-08-27T09:49:13.739Z,9.90
2022-08-27T09:51:41.075Z,9.40
2022-08-27T09:54:08.393Z,10.33
2022-08-27T09:56:39.376Z,11.57
2022-08-27T09:59:06.493Z,9.50
2022-08-27T10:01:38.709Z,10.40
2022-08-27T10:04:08.518Z,9.30
2022-08-27T10:06:35.189Z,9.53
2022-08-27T10:09:08.225Z,10.03
2022-08-27T10:11:37.881Z,8.70
2022-08-27T10:14:21.259Z,9.63
2022-08-27T10:17:06.497Z,8.33
2022-08-27T10:19:42.523Z,9.10
2022-08-27T10:22:27.355Z,10.60
2022-08-27T10:25:03.526Z,9.10
2022-08-27T10:27:34.328Z,10.10
2022-08-27T10:30:07.501Z,8.33
2022-08-27T10:32:55.186Z,8.77
2022-08-27T10:35:25.368Z,9.20
2022-08-27T10:38:04.355Z,9.00
2022-08-27T10:40:36.895Z,8.20
2022-08-27T10:43:22.000Z,7.97
2022-08-27T10:45:48.557Z,6.80
2022-08-27T10:48:25.707Z,6.53
2022-08-27T10:51:04.615Z,6.47
2022-08-27T10:53:49.273Z,11.63
2022-08-27T10:56:19.322Z,7.67
2022-08-27T10:58:53.898Z,6.10
2022-08-27T11:01:26.112Z,5.90
2022-08-27T11:03:55.192Z,6.03
2022-08-27T11:06:33.590Z,5.83
2022-08-27T11:09:21.544Z,7.73
2022-08-27T11:12:15.059Z,5.50
2022-08-27T11:14:52.368Z,5.60
2022-08-27T11:17:23.264Z,4.60
2022-08-27T11:19:59.083Z,4.83
2022-08-27T11:22:52.156Z,4.50
2022-08-27T11:25:27.930Z,5.90
2022-08-27T11:27:56.476Z,5.33
2022-08-27T11:30:35.456Z,4.33
2022-08-27T11:33:13.758Z,4.70
2022-08-27T11:35:53.195Z,3.57
2022-08-27T11:38:25.262Z,4.30
2022-08-27T11:40:51.878Z,3.30
2022-08-27T11:43:23.904Z,3.47
2022-08-27T11:45:55.652Z,3.80
2022-08-27T11:48:27.335Z,3.60
2022-08-27T11:50:58.997Z,3.80
2022-08-27T11:53:28.847Z,3.37
2022-08-27T11:55:55.790Z,3.93
2022-08-27T11:58:23.362Z,4.53
2022-08-27T12:00:53.537Z,4.27
2022-08-27T12:03:20.108Z,4.20
2022-08-27T12:05:49.723Z,4.37
2022-08-27T12:08:26.152Z,2.93
2022-08-27T12:11:11.271Z,3.30
2022-08-27T12:13:56.423Z,2.60
2022-08-27T12:16:26.032Z,2.77
2022-08-27T12:19:15.832Z,3.47
2022-08-27T12:21:47.474Z,2.50
2022-08-27T12:24:20.526Z,3.20
2022-08-27T12:27:01.112Z,3.57
2022-08-27T12:29:33.797Z,3.03
2022-08-27T12:32:18.743Z,3.00
2022-08-27T12:34:48.398Z,2.70
2022-08-27T12:37:15.015Z,3.80
2022-08-27T12:39:44.215Z,2.50
2022-08-27T12:42:15.412Z,2.80
2022-08-27T12:44:41.929Z,3.57
2022-08-27T12:47:11.907Z,3.30
2022-08-27T12:49:39.651Z,2.43
2022-08-27T12:52:25.136Z,3.30
2022-08-27T12:54:51.601Z,4.93
2022-08-27T12:57:27.568Z,2.30
2022-08-27T13:00:15.457Z,3.50
2022-08-27T13:03:00.702Z,2.57
2022-08-27T13:05:35.692Z,3.60
2022-08-27T13:08:02.276Z,3.13
2022-08-27T13:10:29.696Z,3.10
2022-08-27T13:13:02.380Z,5.33
2022-08-27T13:15:29.207Z,3.10
2022-08-27T13:17:55.826Z,2.53
2022-08-27T13:20:23.916Z,3.97
2022-08-27T13:22:51.278Z,4.03
2022-08-27T13:25:21.028Z,10.03
2022-08-27T13:27:59.394Z,3.00
2022-08-27T13:30:35.702Z,2.80
2022-08-27T13:33:03.623Z,2.93
2022-08-27T13:35:32.492Z,3.30
2022-08-27T13:37:59.888Z,3.10
2022-08-27T13:40:31.621Z,3.07
2022-08-27T13:43:03.371Z,3.30
2022-08-27T13:45:30.839Z,3.10
2022-08-27T13:47:57.614Z,3.80
2022-08-27T13:50:26.121Z,3.90
2022-08-27T13:53:12.133Z,3.70
2022-08-27T13:55:40.522Z,3.30
2022-08-27T13:58:15.143Z,5.10
2022-08-27T14:00:41.792Z,4.07
2022-08-27T14:03:30.856Z,3.90
2022-08-27T14:05:57.407Z,3.70
2022-08-27T14:08:27.720Z,3.37
2022-08-27T14:11:03.125Z,2.80
2022-08-27T14:13:37.471Z,2.97
2022-08-27T14:16:12.349Z,3.47
2022-08-27T14:18:58.900Z,3.63
2022-08-27T14:21:26.183Z,3.73
2022-08-27T14:23:54.003Z,3.93
2022-08-27T14:26:20.966Z,3.00
2022-08-27T14:28:47.859Z,4.17
2022-08-27T14:31:14.897Z,3.77
2022-08-27T14:33:41.719Z,3.97
2022-08-27T14:36:09.061Z,3.47
2022-08-27T14:38:37.244Z,4.30
2022-08-27T14:41:07.519Z,3.90
2022-08-27T14:43:34.684Z,3.80
2022-08-27T14:46:02.581Z,3.70
2022-08-27T14:48:32.078Z,4.00
2022-08-27T14:50:59.314Z,4.30
2022-08-27T14:53:26.702Z,3.67
2022-08-27T14:55:54.616Z,4.17
2022-08-27T14:58:21.127Z,4.50
2022-08-27T15:00:47.942Z,4.20
2022-08-27T15:03:14.468Z,4.73
2022-08-27T15:05:40.971Z,3.93
2022-08-27T15:08:13.180Z,5.30
2022-08-27T15:10:40.279Z,4.10
2022-08-27T15:13:07.154Z,4.27
2022-08-27T15:15:33.747Z,4.17
2022-08-27T15:18:00.365Z,5.30
2022-08-27T15:20:26.872Z,5.23
2022-08-27T15:22:53.438Z,4.30
2022-08-27T15:25:20.501Z,6.10
2022-08-27T15:27:47.021Z,4.17
2022-08-27T15:30:14.403Z,5.80
2022-08-27T15:32:43.261Z,5.33
2022-08-27T15:35:13.825Z,5.27
2022-08-27T15:37:41.363Z,5.83
2022-08-27T15:40:08.301Z,5.10
2022-08-27T15:42:34.869Z,4.70
2022-08-27T15:45:01.863Z,5.20
2022-08-27T15:47:28.367Z,5.47
2022-08-27T15:49:54.930Z,5.60
2022-08-27T15:52:22.087Z,6.00
2022-08-27T15:54:49.122Z,7.10
2022-08-27T15:57:16.163Z,6.53
2022-08-27T15:59:43.085Z,6.50
2022-08-27T16:02:13.566Z,6.33
2022-08-27T16:04:40.108Z,6.23
2022-08-27T16:07:06.582Z,5.60
2022-08-27T16:09:33.226Z,6.83
2022-08-27T16:12:00.311Z,6.57
2022-08-27T16:14:26.860Z,6.23
2022-08-27T16:16:53.759Z,6.30
2022-08-27T16:19:20.653Z,7.20
2022-08-27T16:21:47.318Z,6.33
2022-08-27T16:24:14.180Z,6.90
2022-08-27T16:26:41.026Z,7.70
2022-08-27T16:29:07.721Z,5.93
2022-08-27T16:31:35.132Z,6.40
2022-08-27T16:34:02.847Z,7.90
2022-08-27T16:36:30.971Z,6.63
2022-08-27T16:38:57.581Z,6.30
2022-08-27T16:41:24.391Z,7.77
2022-08-27T16:43:50.884Z,6.73
2022-08-27T16:46:17.544Z,6.60
2022-08-27T16:49:02.946Z,6.50
2022-08-27T16:51:32.559Z,6.60
2022-08-27T16:54:00.018Z,7.17
2022-08-27T16:56:28.468Z,6.70
2022-08-27T16:58:55.303Z,7.40
2022-08-27T17:01:22.475Z,5.97
2022-08-27T17:06:36.285Z,4.83
2022-08-27T17:09:06.125Z,6.90
2022-08-27T17:11:33.727Z,5.47
2022-08-27T17:14:04.553Z,5.13
2022-08-27T17:16:32.904Z,5.40
2022-08-27T17:18:59.974Z,6.13
2022-08-27T17:21:30.036Z,4.83
2022-08-27T17:23:59.358Z,6.70
2022-08-27T17:26:26.182Z,8.03
2022-08-27T17:28:53.027Z,5.50
2022-08-27T17:31:27.767Z,5.20
2022-08-27T17:33:56.099Z,5.80
2022-08-27T17:36:24.952Z,5.80
2022-08-27T17:38:53.882Z,6.50
2022-08-27T17:41:49.751Z,6.27
2022-08-27T17:44:21.590Z,6.50
2022-08-27T17:46:52.433Z,6.40
2022-08-27T17:49:19.053Z,6.97
2022-08-27T17:51:45.732Z,7.17
2022-08-27T17:54:34.526Z,8.03
2022-08-27T17:57:02.079Z,16.70
2022-08-27T17:59:28.965Z,9.53
2022-08-27T18:01:56.866Z,9.07
2022-08-27T18:04:23.582Z,8.27
2022-08-27T18:06:50.331Z,8.00
2022-08-27T18:09:17.131Z,7.37
2022-08-27T18:11:44.504Z,9.13
2022-08-27T18:14:11.755Z,11.03
2022-08-27T18:16:38.612Z,9.20
2022-08-27T18:19:07.030Z,7.80
2022-08-27T18:21:34.354Z,9.87
2022-08-27T18:24:00.911Z,11.20
2022-08-27T18:26:28.326Z,9.17
2022-08-27T18:28:55.168Z,9.53
2022-08-27T18:31:23.086Z,9.13
2022-08-27T18:33:49.705Z,9.77
2022-08-27T18:36:18.038Z,9.37
2022-08-27T18:38:47.034Z,9.17
2022-08-27T18:41:13.853Z,10.43
2022-08-27T18:43:42.445Z,8.77
2022-08-27T18:46:09.334Z,11.03
2022-08-27T18:48:36.489Z,8.80
2022-08-27T18:51:04.176Z,8.73
2022-08-27T18:53:32.445Z,11.97
2022-08-27T18:55:59.144Z,8.60
2022-08-27T18:58:25.654Z,7.70
2022-08-27T19:00:54.974Z,7.70
2022-08-27T19:03:26.891Z,8.40
2022-08-27T19:05:55.016Z,8.23
2022-08-27T19:08:23.529Z,8.57
2022-08-27T19:10:50.175Z,7.63
2022-08-27T19:13:16.663Z,9.47
2022-08-27T19:15:46.084Z,7.70
2022-08-27T19:18:12.774Z,9.50
2022-08-27T19:20:39.462Z,11.03
2022-08-27T19:23:06.024Z,10.87
2022-08-27T19:25:32.737Z,7.97
2022-08-27T19:27:59.321Z,7.93
2022-08-27T19:30:25.929Z,10.73
2022-08-27T19:32:54.875Z,12.20
2022-08-27T19:35:23.590Z,11.37
2022-08-27T19:37:52.954Z,7.80
2022-08-27T19:40:21.775Z,8.30
2022-08-27T19:42:48.574Z,10.53
2022-08-27T19:45:15.115Z,8.70
2022-08-27T19:47:41.966Z,8.10
2022-08-27T19:50:08.701Z,9.07
2022-08-27T19:52:35.506Z,10.07
2022-08-27T19:55:17.076Z,8.43
2022-08-27T19:57:44.385Z,8.47
2022-08-27T20:00:11.890Z,10.10
2022-08-27T20:02:38.898Z,9.77
2022-08-27T20:05:21.818Z,10.57
2022-08-27T20:07:50.493Z,9.97
2022-08-27T20:10:18.640Z,9.90
2022-08-27T20:12:45.222Z,9.90
2022-08-27T20:15:11.866Z,9.70
2022-08-27T20:17:39.192Z,9.93
2022-08-27T20:20:06.026Z,10.67
2022-08-27T20:22:32.544Z,12.37
2022-08-27T20:24:59.152Z,10.13
2022-08-27T20:27:25.694Z,10.50
2022-08-27T20:29:54.764Z,9.00
2022-08-27T20:32:21.556Z,10.30
2022-08-27T20:34:48.499Z,10.63
2022-08-27T20:37:17.053Z,15.13
2022-08-27T20:39:43.762Z,11.63
2022-08-27T20:42:11.147Z,10.87
2022-08-27T20:44:38.477Z,10.20
2022-08-27T20:47:05.127Z,10.23
2022-08-27T20:49:31.790Z,11.07
2022-08-27T20:52:03.698Z,12.27
2022-08-27T20:54:31.907Z,10.47
2022-08-27T20:56:58.560Z,11.13
2022-08-27T20:59:43.885Z,15.10
2022-08-27T21:02:11.279Z,9.90
2022-08-27T21:04:38.881Z,9.80
2022-08-27T21:07:05.469Z,12.10
2022-08-27T21:09:32.653Z,10.40
2022-08-27T21:11:59.448Z,10.00
2022-08-27T21:14:26.002Z,10.40
2022-08-27T21:16:54.588Z,10.20
2022-08-27T21:19:21.269Z,10.23
2022-08-27T21:21:47.881Z,10.53
2022-08-27T21:24:14.633Z,15.43
2022-08-27T21:26:41.165Z,12.07
2022-08-27T21:29:07.757Z,10.90
2022-08-27T21:31:34.396Z,10.67
2022-08-27T21:34:00.986Z,11.20
2022-08-27T21:36:27.628Z,12.70
2022-08-27T21:38:54.232Z,11.77
2022-08-27T21:41:21.259Z,13.70
2022-08-27T21:43:47.843Z,9.70
2022-08-27T21:46:14.548Z,11.87
2022-08-27T21:48:41.246Z,11.47
2022-08-27T21:51:11.839Z,12.63
2022-08-27T21:53:38.318Z,10.53
2022-08-27T21:56:04.898Z,11.27
2022-08-27T21:58:31.470Z,11.80
2022-08-27T22:00:58.373Z,11.20
2022-08-27T22:03:25.537Z,10.27
2022-08-27T22:05:52.268Z,14.23
2022-08-27T22:08:20.095Z,12.93
2022-08-27T22:10:47.782Z,11.93
2022-08-27T22:13:14.532Z,13.23
2022-08-27T22:15:41.472Z,12.97
2022-08-27T22:18:08.263Z,13.33
2022-08-27T22:20:35.132Z,13.50
2022-08-27T22:23:01.657Z,13.27
2022-08-27T22:25:28.343Z,14.77
2022-08-27T22:27:55.337Z,12.17
2022-08-27T22:30:21.872Z,14.20
2022-08-27T22:32:49.101Z,14.60
2022-08-27T22:35:16.618Z,18.47
2022-08-27T22:37:44.240Z,12.70
2022-08-27T22:40:20.080Z,13.30
2022-08-27T22:42:46.967Z,17.10
2022-08-27T22:45:13.633Z,14.20
2022-08-27T22:47:40.159Z,12.87
2022-08-27T22:50:07.329Z,12.87
2022-08-27T22:52:33.905Z,12.80
2022-08-27T22:55:00.410Z,13.07
2022-08-27T22:57:27.073Z,12.87
2022-08-27T22:59:53.614Z,13.73
2022-08-27T23:02:20.158Z,15.03
2022-08-27T23:04:55.046Z,17.07
2022-08-27T23:07:22.842Z,15.33
2022-08-27T23:09:49.400Z,15.60
2022-08-27T23:12:15.981Z,16.30
2022-08-27T23:14:42.568Z,15.07
2022-08-27T23:17:09.079Z,14.20
2022-08-27T23:19:35.616Z,18.83
2022-08-27T23:22:02.112Z,16.87
2022-08-27T23:24:34.006Z,16.40
2022-08-27T23:27:19.247Z,15.77
2022-08-27T23:29:47.099Z,15.30
2022-08-27T23:32:14.190Z,14.57
2022-08-27T23:34:40.782Z,14.33
2022-08-27T23:37:07.330Z,19.00
2022-08-27T23:39:33.854Z,14.50
2022-08-27T23:42:00.733Z,14.83
2022-08-27T23:44:29.147Z,16.40
2022-08-27T23:46:55.868Z,17.33
2022-08-27T23:49:22.487Z,14.80
2022-08-27T23:51:49.016Z,16.63
2022-08-27T23:54:15.648Z,16.10
2022-08-27T23:56:42.267Z,16.70
2022-08-27T23:59:08.774Z,17.20
